Le Boreal — FLSY — position and weather

sailwx.info

Track history (hours):
 
Tides and Currents Weather Stations Pressure Air Temp Water Temp Dewpoint Dewpoint Depression Visibility Wind Speed Wind Dir Waves Ship Positions

Le Boreal

Last reported at 2016-May-28 03:07 UTC. Time now 2016-May-29 05:48 UTC.
Position N 54°06' W 005°11'.

Length 140 m; draft 4.9 m.

Type: Passenger vessel. MMSI: 578000500.

Date/timePositionNaut miles runAvg speedWind from/ knotsBaromVisibWave heightAir tempDewpointWater temp
2016-May-28 03:07N 54°06' W 005°11'611.5
2016-May-28 02:33N 54°13' W 005°13'1413.6
2016-May-28 01:34N 54°26' W 005°17'1716.8
2016-May-28 00:34N 54°43' W 005°22'1817.2
2016-May-27 23:32N 54°58' W 005°38'3115.7
2016-May-27 21:33N 55°22' W 006°12'1616.0
2016-May-27 20:33N 55°34' W 006°31'9 9.0
2016-May-27 19:33N 55°42' W 006°37'90 2.9
2016-May-26 13:05N 57°07' W 005°47'5 9.7
2016-May-26 12:32N 57°12' W 005°41'5 5.1
2016-May-26 11:31N 57°17' W 005°42'0 0.1
2016-May-26 10:31N 57°17' W 005°42'0 0.0
2016-May-26 09:28N 57°17' W 005°42'0 0.0
2016-May-26 08:31N 57°17' W 005°42'0 0.0
2016-May-26 07:31N 57°17' W 005°42'0 0.0
2016-May-26 06:31N 57°17' W 005°42'0 0.0
2016-May-26 05:31N 57°17' W 005°42'0 0.0
2016-May-26 04:31N 57°17' W 005°42'0 0.0
2016-May-26 03:31N 57°17' W 005°42'0 0.0
2016-May-26 02:31N 57°17' W 005°42'0 0.0
2016-May-26 01:31N 57°17' W 005°42'0 0.0
2016-May-26 00:31N 57°17' W 005°42'0 0.0
2016-May-25 23:31N 57°17' W 005°42'2 2.3
2016-May-25 22:33N 57°16' W 005°38'47 3.9
2016-May-25 10:33N 56°29' W 005°41'8 7.4
2016-May-25 09:31N 56°25' W 005°29'0 0.0
2016-May-25 08:22N 56°25' W 005°30'0 0.0
2016-May-25 07:31N 56°25' W 005°30'0 0.0
2016-May-25 06:28N 56°25' W 005°29'2 2.1
2016-May-25 05:33N 56°26' W 005°32'19 8.3
2016-May-25 03:14N 56°07' W 005°40'1815.6
2016-May-25 02:06N 55°50' W 005°47'916.0
2016-May-25 01:33N 55°42' W 005°52'1615.8
2016-May-25 00:33N 55°26' W 005°57'1312.6
2016-May-24 23:33N 55°15' W 005°47'4811.8
2016-May-24 19:31N 55°52' W 004°55'7 7.5
2016-May-24 18:33N 55°57' W 004°46'0 0.0
2016-May-24 17:33N 55°57' W 004°46'0 0.0
2016-May-24 16:33N 55°57' W 004°46'0 0.0
2016-May-24 15:33N 55°57' W 004°46'0 0.0
2016-May-24 14:33N 55°57' W 004°46'0 0.0
2016-May-24 13:32N 55°57' W 004°46'1 1.5
2016-May-24 12:34N 55°58' W 004°48'1211.8
2016-May-24 11:31N 55°47' W 004°58'5513.9
2016-May-24 07:33N 54°53' W 005°16'1615.5
2016-May-24 06:34N 54°38' W 005°10'1615.7
2016-May-24 05:34N 54°22' W 005°14'1615.5
2016-May-24 04:33N 54°07' W 005°19'  
2016-May-21 14:32N 39°08' W 009°51'1515.7
2016-May-21 13:33N 38°53' W 009°52'1514.5
2016-May-21 12:33N 38°38' W 009°50'1514.6
2016-May-21 11:33N 38°24' W 009°47'1515.0
2016-May-21 10:33N 38°09' W 009°43'1915.0
2016-May-21 09:17N 37°50' W 009°37'22912.9
2016-May-20 15:33N 36°02' W 005°24'3 0.6
2016-May-20 10:31N 36°05' W 005°25'0 0.2
2016-May-20 09:33N 36°05' W 005°25'7 7.2
2016-May-20 08:32N 36°03' W 005°16'22015.4
2016-May-19 18:17N 37°18' W 000°59'1115.6
2016-May-19 17:33N 37°25' W 000°47'1515.4
2016-May-19 16:33N 37°35' W 000°33'1514.9
2016-May-19 15:31N 37°48' W 000°22'1212.2
2016-May-19 14:31N 37°58' W 000°14'11914.9
2016-May-19 06:31N 39°27' E 001°27'3115.7
2016-May-19 04:33N 39°48' E 001°57'1515.6
2016-May-19 03:33N 39°58' E 002°12'1515.3
2016-May-19 02:33N 40°08' E 002°28'1615.9
2016-May-19 01:33N 40°18' E 002°43'1616.0
2016-May-19 00:33N 40°29' E 002°59'1615.8
2016-May-18 23:33N 40°39' E 003°15'1715.9
2016-May-18 22:31N 40°51' E 003°31'10812.9
2016-May-18 14:08N 42°02' E 005°19'12513.0
2016-May-18 04:32N 43°25' E 007°27'  
Track history (hours):
 
Tides and Currents Weather Stations Pressure Air Temp Water Temp Dewpoint Dewpoint Depression Visibility Wind Speed Wind Dir Waves Ship Positions

Le Boreal

Last reported at 2016-May-28 03:07 UTC. Time now 2016-May-29 05:48 UTC.
Position N 54°06' W 005°11'.

Length 140 m; draft 4.9 m.

Type: Passenger vessel. MMSI: 578000500.

Date/timePositionNaut miles runAvg speedWind from/ knotsBaromVisibWave heightAir tempDewpointWater temp
2016-May-28 03:07N 54°06' W 005°11'611.5
2016-May-28 02:33N 54°13' W 005°13'1413.6
2016-May-28 01:34N 54°26' W 005°17'1716.8
2016-May-28 00:34N 54°43' W 005°22'1817.2
2016-May-27 23:32N 54°58' W 005°38'3115.7
2016-May-27 21:33N 55°22' W 006°12'1616.0
2016-May-27 20:33N 55°34' W 006°31'9 9.0
2016-May-27 19:33N 55°42' W 006°37'90 2.9
2016-May-26 13:05N 57°07' W 005°47'5 9.7
2016-May-26 12:32N 57°12' W 005°41'5 5.1
2016-May-26 11:31N 57°17' W 005°42'0 0.1
2016-May-26 10:31N 57°17' W 005°42'0 0.0
2016-May-26 09:28N 57°17' W 005°42'0 0.0
2016-May-26 08:31N 57°17' W 005°42'0 0.0
2016-May-26 07:31N 57°17' W 005°42'0 0.0
2016-May-26 06:31N 57°17' W 005°42'0 0.0
2016-May-26 05:31N 57°17' W 005°42'0 0.0
2016-May-26 04:31N 57°17' W 005°42'0 0.0
2016-May-26 03:31N 57°17' W 005°42'0 0.0
2016-May-26 02:31N 57°17' W 005°42'0 0.0
2016-May-26 01:31N 57°17' W 005°42'0 0.0
2016-May-26 00:31N 57°17' W 005°42'0 0.0
2016-May-25 23:31N 57°17' W 005°42'2 2.3
2016-May-25 22:33N 57°16' W 005°38'47 3.9
2016-May-25 10:33N 56°29' W 005°41'8 7.4
2016-May-25 09:31N 56°25' W 005°29'0 0.0
2016-May-25 08:22N 56°25' W 005°30'0 0.0
2016-May-25 07:31N 56°25' W 005°30'0 0.0
2016-May-25 06:28N 56°25' W 005°29'2 2.1
2016-May-25 05:33N 56°26' W 005°32'19 8.3
2016-May-25 03:14N 56°07' W 005°40'1815.6
2016-May-25 02:06N 55°50' W 005°47'916.0
2016-May-25 01:33N 55°42' W 005°52'1615.8
2016-May-25 00:33N 55°26' W 005°57'1312.6
2016-May-24 23:33N 55°15' W 005°47'4811.8
2016-May-24 19:31N 55°52' W 004°55'7 7.5
2016-May-24 18:33N 55°57' W 004°46'0 0.0
2016-May-24 17:33N 55°57' W 004°46'0 0.0
2016-May-24 16:33N 55°57' W 004°46'0 0.0
2016-May-24 15:33N 55°57' W 004°46'0 0.0
2016-May-24 14:33N 55°57' W 004°46'0 0.0
2016-May-24 13:32N 55°57' W 004°46'1 1.5
2016-May-24 12:34N 55°58' W 004°48'1211.8
2016-May-24 11:31N 55°47' W 004°58'5513.9
2016-May-24 07:33N 54°53' W 005°16'1615.5
2016-May-24 06:34N 54°38' W 005°10'1615.7
2016-May-24 05:34N 54°22' W 005°14'1615.5
2016-May-24 04:33N 54°07' W 005°19'  
2016-May-21 14:32N 39°08' W 009°51'1515.7
2016-May-21 13:33N 38°53' W 009°52'1514.5
2016-May-21 12:33N 38°38' W 009°50'1514.6
2016-May-21 11:33N 38°24' W 009°47'1515.0
2016-May-21 10:33N 38°09' W 009°43'1915.0
2016-May-21 09:17N 37°50' W 009°37'22912.9
2016-May-20 15:33N 36°02' W 005°24'3 0.6
2016-May-20 10:31N 36°05' W 005°25'0 0.2
2016-May-20 09:33N 36°05' W 005°25'7 7.2
2016-May-20 08:32N 36°03' W 005°16'22015.4
2016-May-19 18:17N 37°18' W 000°59'1115.6
2016-May-19 17:33N 37°25' W 000°47'1515.4
2016-May-19 16:33N 37°35' W 000°33'1514.9
2016-May-19 15:31N 37°48' W 000°22'1212.2
2016-May-19 14:31N 37°58' W 000°14'11914.9
2016-May-19 06:31N 39°27' E 001°27'3115.7
2016-May-19 04:33N 39°48' E 001°57'1515.6
2016-May-19 03:33N 39°58' E 002°12'1515.3
2016-May-19 02:33N 40°08' E 002°28'1615.9
2016-May-19 01:33N 40°18' E 002°43'1616.0
2016-May-19 00:33N 40°29' E 002°59'1615.8
2016-May-18 23:33N 40°39' E 003°15'1715.9
2016-May-18 22:31N 40°51' E 003°31'10812.9
2016-May-18 14:08N 42°02' E 005°19'12513.0
2016-May-18 04:32N 43°25' E 007°27'  

Dump ship's entire track history